Terminal Aerodrome Forecast
Issued by NWS Central Illinois

Home | Current Version | Previous Version | Text Only | Print | Product List | Glossary On
Versions: 1 2 3 4 5 6 7 8 9 10 11 12 13 14 15 16 17
000
FTUS43 KILX 272320
TAFSPI
TAF
KSPI 272320Z 2800/2824 20004KT P6SM VCTS SCT025CB BKN120
     FM280300 19005KT P6SM BKN250
     FM280900 VRB03KT 3SM BR BKN250
     FM281400 15005KT P6SM SCT025 BKN250=

USA.gov is the U.S. government's official web portal to all federal, state and local government web resources and services.